createdAt,value
2019-02-10T00:01:54.080Z,100397.67
2019-02-10T00:04:26.541Z,100397.67
2019-02-10T00:07:00.936Z,100398.03
2019-02-10T00:09:34.961Z,100407.14
2019-02-10T00:12:07.553Z,100409.72
2019-02-10T00:14:40.028Z,100401.38
2019-02-10T00:17:12.582Z,100410.60
2019-02-10T00:19:45.040Z,100410.98
2019-02-10T00:22:17.372Z,100413.17
2019-02-10T00:24:49.656Z,100412.30
2019-02-10T00:27:21.999Z,100412.75
2019-02-10T00:29:54.460Z,100408.77
2019-02-10T00:32:26.959Z,100412.14
2019-02-10T00:34:59.316Z,100408.61
2019-02-10T00:37:31.725Z,100403.69
2019-02-10T00:40:04.664Z,100411.49
2019-02-10T00:42:36.929Z,100411.95
2019-02-10T00:45:09.425Z,100411.03
2019-02-10T00:47:41.841Z,100420.59
2019-02-10T00:50:16.772Z,100417.91
2019-02-10T00:52:52.386Z,100425.28
2019-02-10T00:55:24.929Z,100421.78
2019-02-10T00:57:57.274Z,100424.28
2019-02-10T01:00:29.729Z,100425.12
2019-02-10T01:03:02.103Z,100429.00
2019-02-10T01:05:34.442Z,100424.62
2019-02-10T01:08:06.741Z,100428.49
2019-02-10T01:10:39.084Z,100427.53
2019-02-10T01:13:11.422Z,100429.13
2019-02-10T01:15:43.768Z,100429.55
2019-02-10T01:18:15.984Z,100432.16
2019-02-10T01:20:48.335Z,100430.73
2019-02-10T01:23:20.707Z,100421.59
2019-02-10T01:25:53.043Z,100425.59
2019-02-10T01:28:25.319Z,100426.05
2019-02-10T01:30:57.809Z,100422.48
2019-02-10T01:33:30.077Z,100422.44
2019-02-10T01:36:02.361Z,100422.90
2019-02-10T01:38:34.622Z,100418.98
2019-02-10T01:41:06.916Z,100422.06
2019-02-10T01:43:39.246Z,100420.70
2019-02-10T01:46:11.689Z,100422.81
2019-02-10T01:48:44.035Z,100424.08
2019-02-10T01:51:16.413Z,100424.03
2019-02-10T01:53:48.744Z,100422.73
2019-02-10T01:56:20.991Z,100423.57
2019-02-10T01:58:53.282Z,100422.27
2019-02-10T02:01:25.548Z,100415.78
2019-02-10T02:03:57.792Z,100418.90
2019-02-10T02:06:30.080Z,100422.02
2019-02-10T02:09:03.983Z,100419.95
2019-02-10T02:11:37.242Z,100415.15
2019-02-10T02:14:09.557Z,100416.37
2019-02-10T02:16:41.985Z,100419.78
2019-02-10T02:19:14.397Z,100425.47
2019-02-10T02:21:46.728Z,100421.47
2019-02-10T02:24:19.069Z,100421.93
2019-02-10T02:26:51.316Z,100422.77
2019-02-10T02:29:23.606Z,100416.25
2019-02-10T02:31:56.422Z,100421.00
2019-02-10T02:34:28.690Z,100417.09
2019-02-10T02:37:07.692Z,100410.02
2019-02-10T02:39:35.113Z,100409.47
2019-02-10T02:42:07.412Z,100406.02
2019-02-10T02:44:39.930Z,100411.15
2019-02-10T02:47:12.193Z,100400.58
2019-02-10T02:49:44.473Z,100397.96
2019-02-10T02:52:16.733Z,100398.30
2019-02-10T02:54:49.052Z,100397.41
2019-02-10T02:57:21.275Z,100389.50
2019-02-10T02:59:53.716Z,100387.64
2019-02-10T03:02:26.049Z,100388.86
2019-02-10T03:04:58.454Z,100388.30
2019-02-10T03:07:30.716Z,100389.89
2019-02-10T03:10:02.956Z,100394.13
2019-02-10T03:12:35.476Z,100389.37
2019-02-10T03:15:08.238Z,100382.77
2019-02-10T03:17:41.648Z,100382.34
2019-02-10T03:20:13.915Z,100386.55
2019-02-10T03:22:47.207Z,100387.80
2019-02-10T03:25:19.442Z,100385.52
2019-02-10T03:27:51.801Z,100389.02
2019-02-10T03:30:24.172Z,100392.45
2019-02-10T03:32:56.495Z,100394.69
2019-02-10T03:35:28.787Z,100398.14
2019-02-10T03:38:01.083Z,100385.56
2019-02-10T03:40:34.487Z,100385.19
2019-02-10T03:43:06.871Z,100389.43
2019-02-10T03:45:39.176Z,100386.87
2019-02-10T03:48:11.451Z,100392.03
2019-02-10T03:50:43.709Z,100386.41
2019-02-10T03:53:16.155Z,100385.51
2019-02-10T03:55:48.562Z,100384.20
2019-02-10T03:58:20.912Z,100385.47
2019-02-10T04:00:53.161Z,100384.95
2019-02-10T04:03:25.452Z,100387.14
2019-02-10T04:05:57.914Z,100386.20
2019-02-10T04:08:30.193Z,100380.44
2019-02-10T04:11:02.448Z,100372.61
2019-02-10T04:13:34.677Z,100375.17
2019-02-10T04:16:06.937Z,100373.34
2019-02-10T04:18:39.205Z,100369.49
2019-02-10T04:21:11.531Z,100363.81
2019-02-10T04:23:43.803Z,100362.04
2019-02-10T04:26:16.099Z,100360.74
2019-02-10T04:28:48.423Z,100353.25
2019-02-10T04:31:20.751Z,100360.22
2019-02-10T04:33:53.277Z,100358.41
2019-02-10T04:36:25.652Z,100356.68
2019-02-10T04:38:58.605Z,100356.06
2019-02-10T04:41:30.879Z,100355.52
2019-02-10T04:44:03.219Z,100357.97
2019-02-10T04:46:35.549Z,100348.05
2019-02-10T04:49:07.990Z,100346.02
2019-02-10T04:51:40.485Z,100347.70
2019-02-10T04:54:14.125Z,100357.38
2019-02-10T04:56:46.404Z,100354.57
2019-02-10T04:59:18.662Z,100352.48
2019-02-10T05:01:51.023Z,100355.45
2019-02-10T05:04:23.327Z,100352.23
2019-02-10T05:06:55.713Z,100352.70
2019-02-10T05:09:28.018Z,100352.75
2019-02-10T05:12:00.266Z,100352.19
2019-02-10T05:14:32.630Z,100348.33
2019-02-10T05:17:04.924Z,100345.30
2019-02-10T05:19:37.324Z,100340.47
2019-02-10T05:22:12.628Z,100341.81
2019-02-10T05:24:44.868Z,100343.22
2019-02-10T05:27:17.102Z,100346.61
2019-02-10T05:29:50.522Z,100345.72
2019-02-10T05:32:22.792Z,100348.84
2019-02-10T05:34:55.037Z,100346.19
2019-02-10T05:37:27.335Z,100348.64
2019-02-10T05:39:59.595Z,100336.72
2019-02-10T05:42:31.931Z,100338.34
2019-02-10T05:45:04.180Z,100336.16
2019-02-10T05:47:36.550Z,100340.06
2019-02-10T05:50:09.085Z,100334.48
2019-02-10T05:52:41.465Z,100327.98
2019-02-10T05:55:14.928Z,100321.15
2019-02-10T05:57:48.480Z,100319.42
2019-02-10T06:00:29.635Z,100315.94
2019-02-10T06:03:01.868Z,100309.42
2019-02-10T06:05:34.276Z,100306.82
2019-02-10T06:08:13.137Z,100305.56
2019-02-10T06:10:40.522Z,100303.05
2019-02-10T06:13:12.841Z,100304.39
2019-02-10T06:15:45.161Z,100300.12
2019-02-10T06:18:17.473Z,100301.16
2019-02-10T06:20:49.964Z,100309.39
2019-02-10T06:23:22.366Z,100307.05
2019-02-10T06:25:54.837Z,100298.45
2019-02-10T06:28:27.438Z,100304.45
2019-02-10T06:30:59.822Z,100299.70
2019-02-10T06:33:32.183Z,100291.84
2019-02-10T06:36:07.302Z,100293.75
2019-02-10T06:38:39.841Z,100284.55
2019-02-10T06:41:12.246Z,100279.70
2019-02-10T06:43:44.518Z,100288.81
2019-02-10T06:46:16.836Z,100283.19
2019-02-10T06:48:49.325Z,100277.14
2019-02-10T06:51:21.711Z,100272.91
2019-02-10T06:53:54.209Z,100275.14
2019-02-10T06:56:29.367Z,100268.20
2019-02-10T06:59:01.665Z,100272.25
2019-02-10T07:01:37.140Z,100264.98
2019-02-10T07:04:21.695Z,100260.53
2019-02-10T07:06:54.228Z,100266.34
2019-02-10T07:09:28.176Z,100261.17
2019-02-10T07:12:19.468Z,100261.44
2019-02-10T07:14:51.719Z,100256.36
2019-02-10T07:17:59.866Z,100259.59
2019-02-10T07:20:42.887Z,100255.31
2019-02-10T07:24:07.611Z,100246.80
2019-02-10T07:27:08.101Z,100248.20
2019-02-10T07:30:24.427Z,100243.14
2019-02-10T07:32:56.844Z,100248.52
2019-02-10T07:35:56.036Z,100248.33
2019-02-10T07:38:54.522Z,100241.42
2019-02-10T07:42:13.586Z,100228.98
2019-02-10T07:45:23.283Z,100222.61
2019-02-10T07:48:48.433Z,100217.67
2019-02-10T07:52:07.153Z,100216.08
2019-02-10T07:55:22.005Z,100210.92
2019-02-10T07:58:25.156Z,100201.59
2019-02-10T08:01:26.504Z,100201.77
2019-02-10T08:04:46.526Z,100190.56
2019-02-10T08:07:39.180Z,100192.05
2019-02-10T08:10:55.637Z,100187.94
2019-02-10T08:13:55.877Z,100178.50
2019-02-10T08:16:57.787Z,100178.33
2019-02-10T08:19:52.056Z,100169.23
2019-02-10T08:23:01.219Z,100162.34
2019-02-10T08:26:15.492Z,100155.48
2019-02-10T08:29:17.431Z,100151.66
2019-02-10T08:32:30.575Z,100142.13
2019-02-10T08:36:14.304Z,100134.05
2019-02-10T08:39:17.109Z,100132.66
2019-02-10T08:42:42.275Z,100127.80
2019-02-10T08:45:52.668Z,100123.09
2019-02-10T08:49:05.639Z,100116.66
2019-02-10T08:52:08.768Z,100116.59
2019-02-10T08:54:41.150Z,100104.41
2019-02-10T08:57:13.504Z,100094.86
2019-02-10T08:59:47.334Z,100095.31
2019-02-10T09:02:20.063Z,100090.52
2019-02-10T09:04:52.440Z,100086.12
2019-02-10T09:07:24.813Z,100081.79
2019-02-10T09:09:57.714Z,100066.02
2019-02-10T09:12:29.990Z,100056.92
2019-02-10T09:15:02.374Z,100056.05
2019-02-10T09:17:34.991Z,100047.39
2019-02-10T09:20:10.003Z,100042.25
2019-02-10T09:22:42.281Z,100038.78
2019-02-10T09:25:14.741Z,100038.47
2019-02-10T09:27:47.115Z,100032.02
2019-02-10T09:30:19.444Z,100030.83
2019-02-10T09:32:51.865Z,100022.09
2019-02-10T09:35:24.136Z,100020.84
2019-02-10T09:37:56.482Z,100012.11
2019-02-10T09:40:29.127Z,100011.32
2019-02-10T09:43:01.403Z,100007.38
2019-02-10T09:45:33.725Z,100005.21
2019-02-10T09:48:29.225Z,99996.86
2019-02-10T09:51:02.247Z,99988.57
2019-02-10T09:53:35.089Z,99977.63
2019-02-10T09:56:20.321Z,99969.75
2019-02-10T09:58:55.971Z,99966.25
2019-02-10T10:01:28.142Z,99957.50
2019-02-10T10:04:00.463Z,99955.30
2019-02-10T10:06:33.180Z,99950.46
2019-02-10T10:09:07.710Z,99940.84
2019-02-10T10:11:42.920Z,99935.61
2019-02-10T10:14:15.449Z,99943.95
2019-02-10T10:16:47.823Z,99918.98
2019-02-10T10:19:20.635Z,99909.75
2019-02-10T10:21:58.509Z,99902.77
2019-02-10T10:24:31.335Z,99899.70
2019-02-10T10:27:05.397Z,99890.92
2019-02-10T10:29:40.356Z,99880.81
2019-02-10T10:32:13.066Z,99871.67
2019-02-10T10:34:47.083Z,99866.39
2019-02-10T10:37:19.462Z,99858.11
2019-02-10T10:39:51.852Z,99848.95
2019-02-10T10:42:27.401Z,99831.92
2019-02-10T10:45:09.029Z,99828.44
2019-02-10T10:47:49.538Z,99825.84
2019-02-10T10:50:22.429Z,99817.96
2019-02-10T10:52:58.680Z,99814.48
2019-02-10T10:55:42.159Z,99807.04
2019-02-10T10:58:14.772Z,99797.84
2019-02-10T11:00:49.807Z,99777.30
2019-02-10T11:03:22.766Z,99775.95
2019-02-10T11:05:59.572Z,99766.34
2019-02-10T11:08:33.737Z,99761.09
2019-02-10T11:11:07.344Z,99759.30
2019-02-10T11:13:39.817Z,99747.05
2019-02-10T11:16:12.328Z,99729.93
2019-02-10T11:18:44.676Z,99722.39
2019-02-10T11:21:16.977Z,99715.72
2019-02-10T11:23:49.349Z,99695.73
2019-02-10T11:26:21.702Z,99684.42
2019-02-10T11:28:55.781Z,99683.23
2019-02-10T11:31:28.153Z,99653.98
2019-02-10T11:34:00.539Z,99645.83
2019-02-10T11:36:32.923Z,99648.36
2019-02-10T11:39:06.522Z,99639.93
2019-02-10T11:41:39.335Z,99642.90
2019-02-10T11:44:14.908Z,99637.74
2019-02-10T11:46:47.475Z,99626.19
2019-02-10T11:49:19.853Z,99625.00
2019-02-10T11:51:52.651Z,99619.50
2019-02-10T11:54:25.520Z,99604.47
2019-02-10T11:57:02.832Z,99604.12
2019-02-10T11:59:39.491Z,99593.53
2019-02-10T12:02:12.132Z,99581.10
2019-02-10T12:04:49.084Z,99572.25
2019-02-10T12:07:21.536Z,99575.03
2019-02-10T12:09:56.988Z,99569.84
2019-02-10T12:12:29.543Z,99547.51
2019-02-10T12:15:10.619Z,99544.56
2019-02-10T12:18:18.826Z,99536.34
2019-02-10T12:21:04.049Z,99543.42
2019-02-10T12:23:38.211Z,99538.72
2019-02-10T12:26:21.236Z,99534.81
2019-02-10T12:29:05.422Z,99518.22
2019-02-10T12:31:43.367Z,99513.45
2019-02-10T12:34:20.489Z,99511.64
2019-02-10T12:36:53.173Z,99494.17
2019-02-10T12:39:31.431Z,99484.48
2019-02-10T12:42:05.321Z,99481.05
2019-02-10T12:44:40.916Z,99479.30
2019-02-10T12:47:16.120Z,99468.43
2019-02-10T12:49:50.136Z,99469.67
2019-02-10T12:52:50.710Z,99453.59
2019-02-10T12:55:27.452Z,99463.17
2019-02-10T12:58:00.496Z,99452.72
2019-02-10T13:00:43.890Z,99457.53
2019-02-10T13:03:19.623Z,99446.59
2019-02-10T13:06:01.169Z,99432.62
2019-02-10T13:08:41.541Z,99424.70
2019-02-10T13:11:17.549Z,99406.28
2019-02-10T13:13:58.125Z,99393.94
2019-02-10T13:16:34.735Z,99387.30
2019-02-10T13:19:11.797Z,99385.91
2019-02-10T13:21:45.033Z,99371.70
2019-02-10T13:24:20.898Z,99367.63
2019-02-10T13:26:58.526Z,99357.05
2019-02-10T13:29:36.487Z,99356.58
2019-02-10T13:32:12.729Z,99350.83
2019-02-10T13:34:45.283Z,99338.07
2019-02-10T13:37:18.003Z,99320.12
2019-02-10T13:39:53.518Z,99314.80
2019-02-10T13:42:25.989Z,99317.03
2019-02-10T13:44:58.575Z,99306.08
2019-02-10T13:47:31.129Z,99303.88
2019-02-10T13:50:03.597Z,99288.98
2019-02-10T13:52:36.479Z,99291.19
2019-02-10T13:55:11.171Z,99277.20
2019-02-10T13:57:43.698Z,99272.42
2019-02-10T14:00:18.475Z,99264.15
2019-02-10T14:02:51.468Z,99267.26
2019-02-10T14:05:29.420Z,99254.14
2019-02-10T14:08:11.484Z,99244.09
2019-02-10T14:10:50.065Z,99245.02
2019-02-10T14:13:24.885Z,99238.00
2019-02-10T14:16:02.533Z,99235.05
2019-02-10T14:18:36.825Z,99238.13
2019-02-10T14:21:09.149Z,99229.37
2019-02-10T14:23:41.698Z,99226.31
2019-02-10T14:26:15.271Z,99228.05
2019-02-10T14:28:50.434Z,99223.69
2019-02-10T14:31:26.074Z,99220.62
2019-02-10T14:34:01.308Z,99220.20
2019-02-10T14:36:39.159Z,99213.23
2019-02-10T14:39:15.915Z,99205.36
2019-02-10T14:41:53.180Z,99194.41
2019-02-10T14:44:26.155Z,99199.58
2019-02-10T14:47:33.665Z,99194.45
2019-02-10T14:50:08.139Z,99184.05
2019-02-10T14:52:47.488Z,99171.43
2019-02-10T14:55:25.111Z,99168.80
2019-02-10T14:58:03.176Z,99159.70
2019-02-10T15:00:35.732Z,99154.07
2019-02-10T15:03:08.185Z,99145.35
2019-02-10T15:05:41.660Z,99143.19
2019-02-10T15:08:16.637Z,99138.00
2019-02-10T15:10:51.538Z,99127.08
2019-02-10T15:13:24.078Z,99127.59
2019-02-10T15:15:56.570Z,99126.75
2019-02-10T15:18:32.091Z,99116.72
2019-02-10T15:21:14.190Z,99117.16
2019-02-10T15:23:49.511Z,99113.72
2019-02-10T15:26:26.755Z,99098.98
2019-02-10T15:29:05.817Z,99101.71
2019-02-10T15:31:54.827Z,99095.26
2019-02-10T15:34:29.013Z,99092.31
2019-02-10T15:37:01.629Z,99087.64
2019-02-10T15:39:34.552Z,99083.32
2019-02-10T15:42:09.797Z,99094.83
2019-02-10T15:44:42.305Z,99080.42
2019-02-10T15:47:14.889Z,99085.31
2019-02-10T15:49:47.304Z,99073.59
2019-02-10T15:52:19.665Z,99065.80
2019-02-10T15:54:51.999Z,99063.77
2019-02-10T15:57:24.552Z,99063.86
2019-02-10T15:59:57.021Z,99060.28
2019-02-10T16:02:29.423Z,99057.28
2019-02-10T16:05:01.959Z,99061.30
2019-02-10T16:07:36.014Z,99054.33
2019-02-10T16:10:09.556Z,99054.77
2019-02-10T16:12:41.963Z,99045.30
2019-02-10T16:15:14.363Z,99035.78
2019-02-10T16:17:46.722Z,99032.42
2019-02-10T16:20:19.025Z,99029.45
2019-02-10T16:22:51.543Z,99019.92
2019-02-10T16:25:25.079Z,99021.71
2019-02-10T16:27:57.877Z,99018.23
2019-02-10T16:30:31.797Z,99021.36
2019-02-10T16:33:04.243Z,99016.94
2019-02-10T16:35:36.633Z,99019.19
2019-02-10T16:38:09.019Z,99012.27
2019-02-10T16:40:41.504Z,99012.70
2019-02-10T16:43:14.004Z,99002.71
2019-02-10T16:45:46.465Z,98985.27
2019-02-10T16:48:18.812Z,98989.69
2019-02-10T16:50:53.778Z,98990.96
2019-02-10T16:53:26.250Z,98987.89
2019-02-10T16:55:58.650Z,98974.34
2019-02-10T16:58:31.106Z,98985.70
2019-02-10T17:01:04.722Z,98981.33
2019-02-10T17:03:38.742Z,98964.25
2019-02-10T17:06:14.391Z,98957.70
2019-02-10T17:08:48.971Z,98976.03
2019-02-10T17:11:21.480Z,98980.41
2019-02-10T17:13:54.472Z,98978.21
2019-02-10T17:16:30.127Z,98988.25
2019-02-10T17:19:02.755Z,98996.98
2019-02-10T17:21:35.920Z,98994.35
2019-02-10T17:24:08.474Z,98981.33
2019-02-10T17:26:40.980Z,98979.16
2019-02-10T17:29:13.453Z,98966.50
2019-02-10T17:31:46.124Z,98940.66
2019-02-10T17:34:18.710Z,98946.63
2019-02-10T17:36:51.012Z,98963.56
2019-02-10T17:39:24.994Z,98956.87
2019-02-10T17:41:57.845Z,98954.25
2019-02-10T17:44:30.737Z,98960.00
2019-02-10T17:47:03.432Z,98977.89
2019-02-10T17:49:36.183Z,98972.30
2019-02-10T17:52:09.545Z,98981.09
2019-02-10T17:54:42.211Z,98972.45
2019-02-10T17:57:14.726Z,98968.11
2019-02-10T17:59:49.823Z,98955.50
2019-02-10T18:02:22.338Z,98944.66
2019-02-10T18:04:54.851Z,98939.95
2019-02-10T18:07:27.418Z,98924.83
2019-02-10T18:10:00.067Z,98919.27
2019-02-10T18:12:32.571Z,98931.55
2019-02-10T18:15:25.135Z,98924.20
2019-02-10T18:18:19.457Z,98924.27
2019-02-10T18:21:16.344Z,98897.18
2019-02-10T18:24:05.467Z,98898.55
2019-02-10T18:27:00.013Z,98894.63
2019-02-10T18:29:42.343Z,98908.58
2019-02-10T18:32:36.385Z,98894.63
2019-02-10T18:35:21.773Z,98892.45
2019-02-10T18:38:21.993Z,98898.98
2019-02-10T18:41:06.347Z,98890.70
2019-02-10T18:44:06.806Z,98882.47
2019-02-10T18:47:02.577Z,98874.61
2019-02-10T18:50:00.152Z,98875.94
2019-02-10T18:52:49.151Z,98873.81
2019-02-10T18:55:34.523Z,98869.01
2019-02-10T18:58:25.538Z,98860.78
2019-02-10T19:01:29.326Z,98866.47
2019-02-10T19:04:33.062Z,98850.34
2019-02-10T19:07:24.813Z,98856.02
2019-02-10T19:10:16.198Z,98856.88
2019-02-10T19:13:13.585Z,98856.45
2019-02-10T19:16:05.027Z,98852.56
2019-02-10T19:18:53.967Z,98855.63
2019-02-10T19:21:45.429Z,98857.77
2019-02-10T19:24:35.728Z,98850.77
2019-02-10T19:27:32.648Z,98850.70
2019-02-10T19:30:24.700Z,98856.37
2019-02-10T19:33:15.227Z,98845.41
2019-02-10T19:35:59.041Z,98852.80
2019-02-10T19:38:53.621Z,98854.55
2019-02-10T19:41:32.750Z,98844.51
2019-02-10T19:44:36.583Z,98836.61
2019-02-10T19:47:35.275Z,98827.09
2019-02-10T19:50:29.238Z,98824.52
2019-02-10T19:53:20.556Z,98826.70
2019-02-10T19:56:18.152Z,98820.23
2019-02-10T19:59:07.830Z,98824.98
2019-02-10T20:02:05.380Z,98823.23
2019-02-10T20:05:02.915Z,98813.21
2019-02-10T20:07:54.047Z,98819.80
2019-02-10T20:10:45.375Z,98814.52
2019-02-10T20:13:26.184Z,98829.38
2019-02-10T20:16:06.710Z,98818.44
2019-02-10T20:19:03.892Z,98821.49
2019-02-10T20:22:07.414Z,98822.77
2019-02-10T20:25:02.766Z,98829.31
2019-02-10T20:27:53.378Z,98814.88
2019-02-10T20:30:57.006Z,98813.61
2019-02-10T20:33:48.459Z,98820.11
2019-02-10T20:36:59.450Z,98817.55
2019-02-10T20:39:41.450Z,98826.27
2019-02-10T20:42:22.278Z,98835.00
2019-02-10T20:45:25.159Z,98830.19
2019-02-10T20:48:13.067Z,98829.77
2019-02-10T20:50:56.770Z,98827.59
2019-02-10T20:53:46.900Z,98813.19
2019-02-10T20:56:44.423Z,98827.14
2019-02-10T20:59:37.375Z,98827.59
2019-02-10T21:02:28.744Z,98821.05
2019-02-10T21:05:20.054Z,98821.49
2019-02-10T21:08:18.766Z,98818.05
2019-02-10T21:11:10.249Z,98812.45
2019-02-10T21:14:00.939Z,98819.80
2019-02-10T21:16:50.997Z,98818.12
2019-02-10T21:19:43.146Z,98813.76
2019-02-10T21:22:35.622Z,98803.69
2019-02-10T21:25:18.550Z,98806.34
2019-02-10T21:28:08.720Z,98811.59
2019-02-10T21:30:55.976Z,98811.60
2019-02-10T21:33:50.250Z,98804.19
2019-02-10T21:36:34.816Z,98808.55
2019-02-10T21:39:17.443Z,98795.04
2019-02-10T21:42:16.687Z,98792.47
2019-02-10T21:45:10.840Z,98797.66
2019-02-10T21:47:50.182Z,98781.09
2019-02-10T21:50:22.544Z,98779.78
2019-02-10T21:52:54.891Z,98776.73
2019-02-10T21:55:29.620Z,98783.31
2019-02-10T21:58:03.097Z,98791.98
2019-02-10T22:00:35.586Z,98789.34
2019-02-10T22:03:08.001Z,98782.39
2019-02-10T22:05:40.490Z,98785.00
2019-02-10T22:08:12.902Z,98784.50
2019-02-10T22:10:45.317Z,98790.16
2019-02-10T22:13:20.811Z,98788.42
2019-02-10T22:16:00.018Z,98786.24
2019-02-10T22:18:32.702Z,98786.68
2019-02-10T22:21:14.478Z,98790.16
2019-02-10T22:23:53.986Z,98779.68
2019-02-10T22:26:44.188Z,98773.53
2019-02-10T22:29:14.248Z,98777.43
2019-02-10T22:31:49.413Z,98772.63
2019-02-10T22:34:22.903Z,98770.00
2019-02-10T22:36:55.432Z,98769.52
2019-02-10T22:39:27.893Z,98782.14
2019-02-10T22:42:27.552Z,98775.61
2019-02-10T22:45:10.579Z,98781.28
2019-02-10T22:47:44.504Z,98773.86
2019-02-10T22:50:21.437Z,98782.16
2019-02-10T22:53:07.450Z,98782.14
2019-02-10T22:55:41.517Z,98792.64
2019-02-10T22:58:18.381Z,98784.84
2019-02-10T23:01:10.639Z,98800.10
2019-02-10T23:03:46.778Z,98794.44
2019-02-10T23:06:20.854Z,98783.10
2019-02-10T23:08:54.388Z,98790.07
2019-02-10T23:11:30.921Z,98779.99
2019-02-10T23:14:03.507Z,98779.54
2019-02-10T23:16:39.847Z,98789.58
2019-02-10T23:19:14.570Z,98789.13
2019-02-10T23:21:46.968Z,98801.34
2019-02-10T23:27:12.012Z,98803.09
2019-02-10T23:29:44.620Z,98808.77
2019-02-10T23:32:22.761Z,98817.04
2019-02-10T23:34:58.257Z,98821.83
2019-02-10T23:38:03.548Z,98822.27
2019-02-10T23:40:58.417Z,98816.59
2019-02-10T23:43:27.096Z,98815.72
2019-02-10T23:46:01.339Z,98803.52
2019-02-10T23:48:33.751Z,98816.59
2019-02-10T23:51:06.180Z,98799.97
2019-02-10T23:53:38.630Z,98802.20
2019-02-10T23:56:15.703Z,98789.50
2019-02-10T23:58:48.088Z,98782.52
